createdAt,value
2019-03-15T00:01:18.049Z,2.40
2019-03-15T00:03:45.329Z,2.20
2019-03-15T00:06:12.583Z,2.83
2019-03-15T00:08:39.860Z,2.30
2019-03-15T00:11:07.247Z,3.30
2019-03-15T00:13:34.611Z,2.20
2019-03-15T00:16:02.209Z,2.17
2019-03-15T00:18:29.460Z,2.20
2019-03-15T00:20:56.706Z,2.80
2019-03-15T00:23:23.949Z,2.70
2019-03-15T00:25:51.198Z,2.07
2019-03-15T00:28:18.457Z,1.97
2019-03-15T00:30:45.701Z,2.40
2019-03-15T00:33:12.948Z,2.90
2019-03-15T00:35:40.220Z,3.00
2019-03-15T00:38:07.464Z,2.63
2019-03-15T00:40:34.723Z,2.70
2019-03-15T00:43:01.979Z,2.97
2019-03-15T00:45:29.334Z,2.37
2019-03-15T00:47:56.593Z,2.07
2019-03-15T00:50:24.016Z,2.53
2019-03-15T00:52:51.304Z,3.13
2019-03-15T00:55:18.608Z,3.97
2019-03-15T00:57:46.976Z,3.80
2019-03-15T01:00:14.272Z,3.90
2019-03-15T01:02:44.107Z,3.37
2019-03-15T01:05:10.906Z,3.40
2019-03-15T01:07:38.172Z,3.33
2019-03-15T01:10:05.575Z,3.30
2019-03-15T01:12:32.835Z,4.17
2019-03-15T01:15:00.356Z,3.33
2019-03-15T01:17:27.880Z,4.30
2019-03-15T01:19:55.116Z,5.27
2019-03-15T01:22:22.422Z,3.00
2019-03-15T01:24:49.707Z,2.83
2019-03-15T01:27:16.948Z,2.43
2019-03-15T01:29:44.393Z,2.70
2019-03-15T01:32:11.696Z,2.73
2019-03-15T01:34:38.999Z,2.50
2019-03-15T01:37:06.344Z,2.47
2019-03-15T01:39:33.582Z,2.63
2019-03-15T01:42:00.884Z,2.10
2019-03-15T01:44:28.617Z,3.00
2019-03-15T01:46:56.345Z,2.87
2019-03-15T01:49:23.707Z,2.50
2019-03-15T01:51:50.965Z,3.60
2019-03-15T01:54:18.213Z,2.57
2019-03-15T01:56:45.496Z,2.53
2019-03-15T01:59:12.823Z,2.50
2019-03-15T02:01:40.083Z,2.83
2019-03-15T02:04:07.335Z,2.90
2019-03-15T02:06:34.614Z,1.93
2019-03-15T02:09:01.904Z,2.10
2019-03-15T02:11:29.549Z,2.93
2019-03-15T02:13:57.052Z,2.20
2019-03-15T02:16:24.414Z,2.43
2019-03-15T02:18:51.675Z,3.13
2019-03-15T02:21:18.962Z,3.17
2019-03-15T02:23:46.252Z,2.20
2019-03-15T02:26:13.539Z,2.50
2019-03-15T02:28:40.800Z,2.10
2019-03-15T02:31:08.161Z,2.57
2019-03-15T02:33:35.429Z,2.10
2019-03-15T02:36:02.802Z,2.73
2019-03-15T02:38:30.108Z,2.63
2019-03-15T02:40:57.372Z,2.03
2019-03-15T02:43:24.640Z,2.53
2019-03-15T02:45:54.144Z,2.47
2019-03-15T02:48:22.254Z,2.80
2019-03-15T02:50:49.974Z,1.63
2019-03-15T02:53:17.721Z,1.90
2019-03-15T02:55:45.411Z,2.30
2019-03-15T02:58:13.114Z,2.17
2019-03-15T03:00:41.158Z,2.27
2019-03-15T03:03:08.770Z,2.53
2019-03-15T03:05:36.213Z,2.63
2019-03-15T03:08:03.596Z,2.67
2019-03-15T03:10:30.860Z,2.10
2019-03-15T03:12:58.130Z,2.03
2019-03-15T03:15:25.458Z,2.70
2019-03-15T03:17:52.697Z,1.87
2019-03-15T03:20:21.017Z,2.30
2019-03-15T03:22:48.670Z,2.67
2019-03-15T03:25:17.258Z,2.60
2019-03-15T03:27:44.899Z,2.53
2019-03-15T03:30:13.205Z,3.30
2019-03-15T03:32:44.169Z,2.73
2019-03-15T03:35:10.910Z,3.47
2019-03-15T03:37:38.415Z,3.63
2019-03-15T03:40:05.945Z,3.03
2019-03-15T03:42:33.796Z,3.20
2019-03-15T03:45:01.061Z,2.73
2019-03-15T03:47:28.325Z,2.77
2019-03-15T03:49:55.570Z,3.30
2019-03-15T03:52:22.819Z,3.53
2019-03-15T03:54:50.067Z,3.13
2019-03-15T03:57:17.349Z,3.13
2019-03-15T03:59:44.771Z,3.10
2019-03-15T04:02:12.045Z,2.83
2019-03-15T04:04:39.426Z,2.77
2019-03-15T04:07:07.024Z,2.63
2019-03-15T04:09:34.289Z,3.20
2019-03-15T04:12:01.656Z,2.60
2019-03-15T04:14:29.025Z,3.13
2019-03-15T04:16:56.266Z,3.40
2019-03-15T04:19:24.324Z,3.80
2019-03-15T04:21:52.064Z,3.37
2019-03-15T04:24:19.304Z,4.00
2019-03-15T04:27:26.508Z,3.40
2019-03-15T04:29:53.779Z,3.70
2019-03-15T04:32:21.013Z,3.20
2019-03-15T04:34:48.271Z,2.87
2019-03-15T04:37:15.512Z,3.67
2019-03-15T04:39:42.755Z,2.67
2019-03-15T04:42:10.035Z,3.13
2019-03-15T04:44:37.261Z,3.30
2019-03-15T04:47:04.642Z,3.00
2019-03-15T04:49:31.941Z,2.87
2019-03-15T04:51:59.332Z,3.03
2019-03-15T04:54:26.602Z,2.87
2019-03-15T04:57:00.126Z,2.70
2019-03-15T04:59:27.381Z,3.27
2019-03-15T05:01:54.656Z,3.10
2019-03-15T05:04:21.895Z,2.87
2019-03-15T05:06:49.196Z,3.80
2019-03-15T05:09:16.435Z,3.63
2019-03-15T05:11:43.699Z,4.47
2019-03-15T05:14:10.981Z,4.47
2019-03-15T05:16:38.244Z,3.87
2019-03-15T05:19:05.494Z,4.77
2019-03-15T05:21:32.787Z,4.03
2019-03-15T05:24:00.014Z,3.90
2019-03-15T05:26:27.231Z,3.27
2019-03-15T05:28:54.581Z,4.23
2019-03-15T05:31:21.840Z,4.07
2019-03-15T05:33:49.261Z,3.80
2019-03-15T05:36:16.482Z,4.87
2019-03-15T05:38:43.801Z,5.07
2019-03-15T05:41:11.026Z,4.67
2019-03-15T05:43:38.312Z,4.50
2019-03-15T05:46:05.611Z,4.57
2019-03-15T05:48:32.839Z,4.70
2019-03-15T05:51:00.130Z,4.60
2019-03-15T05:53:27.355Z,5.57
2019-03-15T05:55:54.609Z,5.03
2019-03-15T05:58:22.191Z,4.40
2019-03-15T06:00:49.592Z,4.50
2019-03-15T06:03:16.861Z,4.67
2019-03-15T06:05:44.215Z,3.40
2019-03-15T06:08:11.556Z,4.33
2019-03-15T06:10:38.817Z,5.10
2019-03-15T06:13:06.163Z,3.17
2019-03-15T06:15:33.688Z,3.20
2019-03-15T06:18:01.264Z,3.67
2019-03-15T06:20:28.620Z,3.67
2019-03-15T06:22:55.884Z,4.30
2019-03-15T06:25:23.133Z,5.23
2019-03-15T06:27:50.396Z,4.30
2019-03-15T06:30:17.686Z,4.87
2019-03-15T06:32:44.940Z,4.93
2019-03-15T06:35:12.297Z,5.33
2019-03-15T06:37:39.556Z,5.43
2019-03-15T06:40:06.831Z,4.33
2019-03-15T06:42:34.121Z,5.03
2019-03-15T06:45:01.383Z,3.77
2019-03-15T06:47:28.649Z,5.30
2019-03-15T06:49:55.878Z,5.97
2019-03-15T06:52:23.227Z,5.87
2019-03-15T06:54:50.478Z,5.10
2019-03-15T06:57:17.756Z,5.93
2019-03-15T06:59:47.665Z,5.07
2019-03-15T07:02:14.939Z,5.90
2019-03-15T07:04:42.319Z,4.87
2019-03-15T07:07:10.398Z,4.93
2019-03-15T07:09:38.472Z,5.37
2019-03-15T07:12:18.177Z,6.97
2019-03-15T07:14:57.746Z,6.07
2019-03-15T07:17:25.724Z,7.37
2019-03-15T07:19:55.919Z,8.37
2019-03-15T07:22:27.350Z,9.27
2019-03-15T07:24:54.734Z,10.73
2019-03-15T07:27:22.185Z,10.97
2019-03-15T07:29:49.534Z,11.67
2019-03-15T07:32:16.803Z,11.37
2019-03-15T07:34:44.169Z,10.67
2019-03-15T07:37:11.521Z,11.63
2019-03-15T07:39:38.827Z,13.47
2019-03-15T07:42:06.925Z,13.00
2019-03-15T07:44:34.314Z,12.13
2019-03-15T07:47:01.607Z,11.60
2019-03-15T07:49:28.875Z,12.53
2019-03-15T07:51:56.160Z,11.53
2019-03-15T07:54:23.698Z,11.07
2019-03-15T07:56:51.052Z,10.53
2019-03-15T07:59:18.341Z,11.87
2019-03-15T08:01:45.764Z,10.43
2019-03-15T08:04:17.178Z,10.47
2019-03-15T08:06:42.289Z,10.53
2019-03-15T08:09:09.543Z,10.17
2019-03-15T08:11:36.779Z,10.07
2019-03-15T08:14:04.071Z,11.67
2019-03-15T08:16:34.352Z,9.27
2019-03-15T08:19:00.483Z,9.63
2019-03-15T08:21:27.756Z,9.27
2019-03-15T08:23:55.024Z,8.40
2019-03-15T08:26:22.257Z,8.30
2019-03-15T08:28:49.514Z,9.13
2019-03-15T08:31:16.851Z,7.90
2019-03-15T08:33:50.044Z,8.13
2019-03-15T08:36:20.100Z,7.27
2019-03-15T08:38:47.988Z,8.20
2019-03-15T08:41:15.500Z,6.97
2019-03-15T08:43:45.864Z,7.47
2019-03-15T08:46:11.901Z,7.03
2019-03-15T08:48:39.478Z,7.47
2019-03-15T08:51:10.164Z,7.37
2019-03-15T08:53:36.016Z,6.90
2019-03-15T08:56:03.262Z,9.63
2019-03-15T08:58:30.625Z,8.17
2019-03-15T09:00:57.925Z,8.80
2019-03-15T09:03:28.242Z,9.27
2019-03-15T09:05:54.432Z,9.83
2019-03-15T09:08:21.680Z,11.67
2019-03-15T09:10:48.964Z,10.43
2019-03-15T09:13:16.211Z,10.17
2019-03-15T09:15:43.488Z,10.10
2019-03-15T09:18:10.932Z,9.73
2019-03-15T09:20:38.277Z,11.37
2019-03-15T09:23:05.507Z,9.50
2019-03-15T09:25:32.756Z,9.30
2019-03-15T09:28:00.228Z,9.47
2019-03-15T09:30:27.475Z,8.03
2019-03-15T09:32:54.842Z,7.73
2019-03-15T09:35:22.083Z,7.50
2019-03-15T09:37:50.263Z,7.17
2019-03-15T09:40:20.702Z,6.87
2019-03-15T09:42:48.661Z,6.83
2019-03-15T09:45:15.948Z,5.70
2019-03-15T09:47:43.236Z,5.50
2019-03-15T09:50:21.520Z,5.47
2019-03-15T09:52:39.903Z,4.23
2019-03-15T09:55:07.386Z,4.40
2019-03-15T09:57:34.656Z,5.00
2019-03-15T10:00:01.972Z,6.77
2019-03-15T10:02:30.615Z,5.70
2019-03-15T10:05:09.937Z,3.77
2019-03-15T10:07:37.728Z,4.43
2019-03-15T10:09:56.590Z,4.63
2019-03-15T10:12:23.889Z,3.67
2019-03-15T10:14:51.283Z,4.23
2019-03-15T10:17:18.870Z,3.60
2019-03-15T10:19:50.483Z,4.27
2019-03-15T10:22:20.641Z,4.07
2019-03-15T10:24:48.020Z,3.40
2019-03-15T10:27:22.125Z,3.90
2019-03-15T10:29:49.531Z,3.60
2019-03-15T10:32:16.778Z,3.57
2019-03-15T10:34:44.249Z,4.97
2019-03-15T10:37:11.971Z,4.67
2019-03-15T10:39:39.446Z,2.30
2019-03-15T10:42:06.780Z,1.00
2019-03-15T10:44:34.122Z,0.30
2019-03-15T10:47:01.527Z,0.20
2019-03-15T10:49:30.888Z,0.20
2019-03-15T10:51:58.071Z,0.30
2019-03-15T10:54:25.332Z,0.33
2019-03-15T10:56:52.932Z,0.20
2019-03-15T10:59:20.575Z,0.20
2019-03-15T11:01:48.401Z,0.20
2019-03-15T11:04:16.272Z,0.20
2019-03-15T11:06:44.090Z,0.20
2019-03-15T11:09:11.846Z,0.20
2019-03-15T11:11:39.552Z,0.10
2019-03-15T11:14:11.051Z,0.10
2019-03-15T11:16:38.709Z,2.77
2019-03-15T11:19:07.277Z,0.70
2019-03-15T11:21:35.040Z,0.07
2019-03-15T11:24:02.710Z,0.30
2019-03-15T11:26:30.422Z,0.13
2019-03-15T11:28:58.135Z,0.10
2019-03-15T11:31:25.902Z,0.13
2019-03-15T11:33:53.508Z,0.10
2019-03-15T11:36:21.692Z,0.20
2019-03-15T11:38:49.913Z,0.43
2019-03-15T11:41:17.564Z,0.20
2019-03-15T11:43:45.282Z,0.10
2019-03-15T11:46:16.288Z,0.20
2019-03-15T11:48:42.401Z,0.30
2019-03-15T11:51:10.245Z,0.27
2019-03-15T11:53:37.905Z,0.20
2019-03-15T11:56:05.845Z,0.30
2019-03-15T11:58:37.382Z,0.80
2019-03-15T12:01:07.769Z,0.30
2019-03-15T12:03:35.492Z,0.20
2019-03-15T12:06:02.856Z,0.20
2019-03-15T12:08:30.187Z,0.00
2019-03-15T12:10:57.483Z,0.30
2019-03-15T12:13:24.878Z,0.20
2019-03-15T12:15:52.239Z,0.20
2019-03-15T12:18:19.619Z,0.50
2019-03-15T12:20:49.297Z,0.43
2019-03-15T12:23:16.081Z,0.03
2019-03-15T12:25:43.460Z,0.10
2019-03-15T12:28:11.494Z,0.10
2019-03-15T12:30:42.885Z,0.10
2019-03-15T12:33:08.981Z,0.30
2019-03-15T12:35:36.314Z,0.50
2019-03-15T12:38:03.608Z,0.20
2019-03-15T12:40:35.902Z,0.50
2019-03-15T12:43:03.159Z,0.20
2019-03-15T12:45:30.413Z,0.00
2019-03-15T12:47:57.746Z,0.00
2019-03-15T12:50:24.991Z,0.00
2019-03-15T12:52:52.259Z,0.10
2019-03-15T12:55:19.544Z,0.70
2019-03-15T12:57:49.238Z,0.20
2019-03-15T13:00:16.084Z,0.10
2019-03-15T13:02:43.460Z,0.03
2019-03-15T13:05:10.879Z,0.00
2019-03-15T13:07:38.141Z,0.00
2019-03-15T13:10:10.081Z,0.00
2019-03-15T13:12:36.587Z,0.00
2019-03-15T13:15:04.073Z,0.00
2019-03-15T13:17:31.350Z,0.00
2019-03-15T13:19:58.585Z,0.00
2019-03-15T13:22:25.851Z,0.10
2019-03-15T13:24:53.171Z,0.00
2019-03-15T13:27:23.563Z,0.17
2019-03-15T13:29:50.835Z,0.00
2019-03-15T13:32:18.075Z,0.00
2019-03-15T13:34:45.313Z,0.00
2019-03-15T13:37:12.570Z,0.00
2019-03-15T13:39:39.788Z,0.00
2019-03-15T13:42:07.064Z,0.00
2019-03-15T13:44:34.413Z,0.00
2019-03-15T13:47:01.656Z,0.00
2019-03-15T13:49:28.958Z,2.67
2019-03-15T13:51:56.209Z,0.17
2019-03-15T13:54:23.552Z,0.50
2019-03-15T13:56:50.885Z,0.00
2019-03-15T13:59:18.355Z,0.10
2019-03-15T14:01:45.783Z,0.10
2019-03-15T14:04:18.113Z,0.00
2019-03-15T14:06:45.987Z,0.00
2019-03-15T14:09:14.220Z,0.10
2019-03-15T14:11:41.499Z,0.00
2019-03-15T14:14:08.742Z,0.00
2019-03-15T14:16:35.984Z,0.10
2019-03-15T14:19:03.251Z,0.00
2019-03-15T14:21:30.586Z,0.10
2019-03-15T14:23:57.860Z,0.00
2019-03-15T14:26:25.103Z,0.10
2019-03-15T14:28:52.401Z,0.00
2019-03-15T14:31:21.701Z,0.00
2019-03-15T14:33:49.933Z,0.00
2019-03-15T14:36:17.555Z,0.07
2019-03-15T14:38:45.344Z,0.00
2019-03-15T14:41:12.891Z,0.00
2019-03-15T14:43:40.286Z,0.00
2019-03-15T14:46:07.654Z,0.00
2019-03-15T14:48:34.974Z,0.10
2019-03-15T14:51:02.488Z,0.07
2019-03-15T14:53:29.755Z,0.00
2019-03-15T14:55:57.448Z,0.00
2019-03-15T14:58:24.876Z,0.00
2019-03-15T15:00:52.148Z,1.87
2019-03-15T15:03:19.431Z,0.60
2019-03-15T15:05:47.441Z,0.20
2019-03-15T15:08:15.183Z,0.00
2019-03-15T15:10:42.523Z,0.10
2019-03-15T15:13:09.834Z,0.03
2019-03-15T15:15:37.738Z,0.07
2019-03-15T15:18:05.099Z,0.10
2019-03-15T15:20:32.476Z,0.23
2019-03-15T15:22:59.730Z,0.10
2019-03-15T15:25:27.159Z,0.10
2019-03-15T15:28:03.894Z,0.10
2019-03-15T15:30:23.645Z,0.00
2019-03-15T15:32:50.901Z,0.00
2019-03-15T15:35:18.169Z,0.10
2019-03-15T15:37:46.466Z,0.00
2019-03-15T15:40:13.780Z,0.00
2019-03-15T15:42:41.070Z,0.20
2019-03-15T15:45:10.063Z,0.00
2019-03-15T15:47:37.333Z,0.00
2019-03-15T15:50:04.602Z,0.00
2019-03-15T15:52:31.923Z,0.10
2019-03-15T15:54:59.232Z,0.00
2019-03-15T15:57:29.985Z,0.00
2019-03-15T15:59:57.463Z,0.00
2019-03-15T16:02:24.803Z,0.10
2019-03-15T16:04:52.446Z,0.00
2019-03-15T16:07:20.232Z,0.00
2019-03-15T16:09:47.516Z,0.00
2019-03-15T16:12:14.777Z,0.00
2019-03-15T16:14:42.035Z,0.00
2019-03-15T16:17:09.321Z,0.10
2019-03-15T16:19:36.542Z,0.00
2019-03-15T16:22:03.803Z,0.10
2019-03-15T16:24:31.163Z,0.00
2019-03-15T16:26:58.656Z,0.10
2019-03-15T16:29:27.155Z,0.10
2019-03-15T16:32:12.825Z,0.10
2019-03-15T16:34:40.544Z,0.10
2019-03-15T16:37:10.668Z,0.20
2019-03-15T16:39:42.311Z,0.10
2019-03-15T16:42:30.406Z,0.10
2019-03-15T16:45:02.784Z,0.00
2019-03-15T16:47:31.232Z,0.10
2019-03-15T16:49:58.604Z,0.10
2019-03-15T16:52:36.968Z,0.10
2019-03-15T16:55:06.683Z,0.20
2019-03-15T16:57:34.046Z,0.10
2019-03-15T17:00:02.832Z,0.10
2019-03-15T17:02:30.142Z,0.10
2019-03-15T17:04:57.712Z,0.10
2019-03-15T17:07:25.511Z,0.10
2019-03-15T17:09:53.933Z,0.10
2019-03-15T17:12:25.957Z,0.10
2019-03-15T17:14:56.509Z,0.23
2019-03-15T17:17:29.110Z,1.10
2019-03-15T17:20:02.572Z,0.20
2019-03-15T17:22:38.847Z,0.23
2019-03-15T17:25:08.594Z,0.57
2019-03-15T17:27:43.394Z,0.63
2019-03-15T17:30:24.070Z,0.37
2019-03-15T17:32:51.305Z,0.10
2019-03-15T17:35:24.552Z,0.10
2019-03-15T17:37:52.545Z,0.10
2019-03-15T17:40:21.547Z,0.10
2019-03-15T17:42:49.527Z,0.00
2019-03-15T17:45:17.141Z,0.00
2019-03-15T17:47:45.348Z,0.07
2019-03-15T17:50:14.195Z,0.10
2019-03-15T17:52:49.953Z,0.10
2019-03-15T17:55:18.652Z,0.00
2019-03-15T17:57:55.340Z,0.20
2019-03-15T18:00:27.224Z,0.10
2019-03-15T18:02:54.574Z,0.30
2019-03-15T18:05:21.846Z,0.10
2019-03-15T18:07:49.186Z,0.30
2019-03-15T18:10:16.463Z,0.37
2019-03-15T18:12:44.399Z,0.30
2019-03-15T18:15:11.843Z,1.27
2019-03-15T18:17:43.762Z,1.10
2019-03-15T18:20:17.470Z,0.90
2019-03-15T18:22:44.855Z,0.73
2019-03-15T18:25:15.163Z,1.50
2019-03-15T18:27:42.472Z,0.60
2019-03-15T18:30:20.096Z,0.90
2019-03-15T18:32:53.584Z,0.80
2019-03-15T18:35:33.517Z,0.93
2019-03-15T18:38:00.332Z,1.37
2019-03-15T18:40:31.263Z,2.17
2019-03-15T18:42:59.068Z,1.70
2019-03-15T18:45:37.511Z,2.50
2019-03-15T18:48:05.687Z,1.07
2019-03-15T18:50:41.278Z,0.30
2019-03-15T18:53:08.802Z,0.00
2019-03-15T18:55:36.859Z,7.57
2019-03-15T18:58:05.992Z,1.30
2019-03-15T19:00:33.294Z,0.10
2019-03-15T19:03:03.531Z,0.40
2019-03-15T19:05:35.225Z,0.17
2019-03-15T19:08:02.688Z,0.00
2019-03-15T19:10:33.509Z,0.10
2019-03-15T19:13:01.038Z,0.17
2019-03-15T19:15:28.543Z,0.17
2019-03-15T19:17:59.260Z,0.10
2019-03-15T19:20:30.114Z,0.10
2019-03-15T19:22:57.617Z,0.10
2019-03-15T19:25:26.381Z,0.20
2019-03-15T19:27:53.719Z,0.10
2019-03-15T19:30:37.104Z,0.10
2019-03-15T19:33:04.492Z,0.00
2019-03-15T19:35:44.292Z,0.07
2019-03-15T19:38:17.730Z,0.10
2019-03-15T19:41:04.883Z,0.10
2019-03-15T19:43:35.722Z,0.10
2019-03-15T19:46:03.491Z,0.10
2019-03-15T19:48:31.564Z,0.10
2019-03-15T19:50:58.991Z,0.10
2019-03-15T19:53:51.659Z,0.40
2019-03-15T19:56:19.955Z,0.17
2019-03-15T19:58:47.216Z,0.77
2019-03-15T20:01:14.530Z,0.30
2019-03-15T20:03:44.286Z,0.40
2019-03-15T20:06:11.210Z,0.10
2019-03-15T20:08:38.604Z,0.10
2019-03-15T20:11:06.044Z,0.10
2019-03-15T20:13:33.373Z,0.20
2019-03-15T20:16:00.628Z,0.10
2019-03-15T20:18:28.161Z,0.10
2019-03-15T20:20:55.562Z,0.13
2019-03-15T20:23:22.911Z,0.20
2019-03-15T20:25:50.761Z,0.20
2019-03-15T20:28:18.209Z,0.20
2019-03-15T20:30:51.730Z,0.20
2019-03-15T20:33:14.836Z,0.10
2019-03-15T20:35:42.159Z,0.10
2019-03-15T20:38:09.527Z,0.10
2019-03-15T20:40:38.434Z,0.10
2019-03-15T20:43:05.941Z,0.10
2019-03-15T20:45:34.252Z,0.10
2019-03-15T20:48:01.523Z,0.10
2019-03-15T20:50:28.881Z,0.30
2019-03-15T20:53:07.789Z,0.10
2019-03-15T20:55:28.542Z,0.20
2019-03-15T20:57:55.028Z,0.10
2019-03-15T21:00:34.838Z,0.10
2019-03-15T21:02:51.606Z,0.10
2019-03-15T21:05:18.955Z,0.10
2019-03-15T21:07:46.207Z,0.20
2019-03-15T21:10:13.599Z,0.17
2019-03-15T21:12:44.334Z,0.10
2019-03-15T21:15:12.397Z,0.10
2019-03-15T21:17:39.661Z,0.00
2019-03-15T21:20:07.984Z,0.03
2019-03-15T21:22:35.232Z,0.10
2019-03-15T21:25:02.564Z,0.10
2019-03-15T21:27:29.899Z,0.00
2019-03-15T21:29:59.510Z,0.00
2019-03-15T21:32:26.826Z,0.00
2019-03-15T21:34:54.074Z,0.00
2019-03-15T21:37:21.577Z,0.17
2019-03-15T21:39:48.977Z,0.17
2019-03-15T21:42:16.353Z,0.00
2019-03-15T21:44:43.611Z,0.00
2019-03-15T21:47:10.843Z,0.00
2019-03-15T21:49:38.088Z,0.10
2019-03-15T21:52:05.335Z,0.00
2019-03-15T21:54:32.699Z,0.00
2019-03-15T21:56:59.965Z,0.00
2019-03-15T21:59:27.342Z,0.00
2019-03-15T22:01:54.673Z,0.00
2019-03-15T22:04:21.919Z,0.00
2019-03-15T22:06:49.222Z,0.00
2019-03-15T22:09:16.497Z,0.00
2019-03-15T22:11:43.768Z,0.10
2019-03-15T22:14:11.039Z,0.00
2019-03-15T22:16:38.356Z,0.10
2019-03-15T22:19:05.906Z,0.10
2019-03-15T22:21:33.228Z,0.10
2019-03-15T22:24:00.678Z,0.00
2019-03-15T22:26:47.435Z,0.03
2019-03-15T22:29:14.688Z,0.00
2019-03-15T22:31:42.029Z,0.03
2019-03-15T22:34:09.323Z,0.00
2019-03-15T22:36:36.595Z,0.10
2019-03-15T22:39:04.879Z,0.00
2019-03-15T22:41:35.570Z,0.10
2019-03-15T22:44:01.493Z,0.00
2019-03-15T22:46:28.820Z,0.00
2019-03-15T22:48:56.075Z,0.00
2019-03-15T22:51:23.346Z,0.00
2019-03-15T22:53:50.871Z,0.10
2019-03-15T22:56:18.222Z,0.00
2019-03-15T22:58:45.551Z,0.00
2019-03-15T23:01:12.900Z,0.10
2019-03-15T23:03:40.147Z,0.00
2019-03-15T23:06:07.588Z,0.00
2019-03-15T23:08:34.880Z,0.07
2019-03-15T23:11:02.187Z,0.00
2019-03-15T23:13:29.484Z,0.17
2019-03-15T23:15:57.111Z,0.00
2019-03-15T23:18:24.357Z,0.10
2019-03-15T23:20:51.708Z,0.00
2019-03-15T23:23:24.149Z,0.00
2019-03-15T23:25:48.300Z,0.00
2019-03-15T23:28:15.751Z,0.00
2019-03-15T23:30:43.025Z,0.00
2019-03-15T23:33:10.273Z,0.10
2019-03-15T23:35:53.006Z,0.00
2019-03-15T23:38:07.091Z,0.00
2019-03-15T23:40:34.327Z,0.00
2019-03-15T23:43:01.599Z,0.00
2019-03-15T23:45:30.005Z,0.00
2019-03-15T23:47:58.488Z,0.00
2019-03-15T23:50:25.781Z,0.00
2019-03-15T23:52:53.019Z,0.03
2019-03-15T23:55:20.250Z,0.03
2019-03-15T23:57:47.545Z,0.00
